Time;durP1;ratioP1;P1;durP2;ratioP2;P2;SDS_P1;SDS_P2;PMS_P1;PMS_P2;Temp;Humidity;BMP_temperature;BMP_pressure;BME280_temperature;BME280_humidity;BME280_pressure;Samples;Min_cycle;Max_cycle;Signal;HPM_P1;HPM_P2
2023/03/05 00:00:14;;;;;;;11.90;2.70;;;3.00;99.90;;;;;;4824622;29;20464;-84
2023/03/05 00:02:52;;;;;;;11.03;2.40;;;2.70;99.90;;;;;;4824098;29;20042;-84
2023/03/05 00:05:17;;;;;;;12.60;2.50;;;2.80;99.90;;;;;;4824567;29;20038;-84
2023/03/05 00:07:43;;;;;;;10.53;2.23;;;2.90;99.90;;;;;;4826975;29;20394;-83
2023/03/05 00:10:09;;;;;;;9.80;2.13;;;2.80;99.90;;;;;;4827776;29;20046;-83
2023/03/05 00:12:50;;;;;;;11.50;2.30;;;2.70;99.90;;;;;;4823385;29;20046;-83
2023/03/05 00:15:41;;;;;;;10.90;2.20;;;4.50;99.90;;;;;;4815222;29;20047;-84
2023/03/05 00:18:06;;;;;;;10.50;2.00;;;3.50;99.90;;;;;;4825090;29;20137;-83
2023/03/05 00:20:41;;;;;;;8.27;1.83;;;2.80;99.90;;;;;;4817870;29;20114;-84
2023/03/05 00:23:57;;;;;;;9.97;2.30;;;2.60;99.90;;;;;;4816108;29;20043;-84
2023/03/05 00:29:45;;;;;;;10.87;2.03;;;2.70;99.90;;;;;;5093008;23;20032;-84
2023/03/05 00:42:44;;;;;;;8.60;2.30;;;3.10;99.90;;;;;;4842141;29;20058;-84
2023/03/05 00:45:19;;;;;;;11.63;2.33;;;2.30;99.90;;;;;;4826215;29;20121;-84
2023/03/05 00:47:45;;;;;;;10.40;2.27;;;4.60;99.90;;;;;;4841962;23;20107;-84
2023/03/05 00:50:10;;;;;;;10.80;2.30;;;2.30;99.90;;;;;;4807515;29;20138;-84
2023/03/05 00:52:36;;;;;;;12.47;2.20;;;2.00;99.90;;;;;;4806844;29;20079;-84
2023/03/05 00:55:02;;;;;;;9.47;2.40;;;2.40;99.90;;;;;;4813654;24;20062;-84
2023/03/05 00:57:40;;;;;;;12.70;2.53;;;2.60;99.90;;;;;;4814030;24;20073;-84
2023/03/05 01:00:06;;;;;;;7.43;1.97;;;2.30;99.90;;;;;;4815491;29;20468;-84
2023/03/05 01:02:32;;;;;;;10.43;2.20;;;2.70;99.90;;;;;;4823572;29;20086;-84
2023/03/05 01:05:16;;;;;;;11.53;2.77;;;4.10;99.90;;;;;;4807579;29;20093;-84
2023/03/05 01:07:50;;;;;;;11.32;2.78;;;2.60;99.90;;;;;;4822942;29;20053;-84
2023/03/05 01:10:22;;;;;;;9.37;1.93;;;2.50;99.90;;;;;;4799546;29;20141;-84
2023/03/05 01:13:07;;;;;;;12.10;2.33;;;4.00;99.90;;;;;;4807251;29;20050;-84
2023/03/05 01:15:50;;;;;;;8.63;2.03;;;3.20;99.90;;;;;;4806992;29;20062;-84
2023/03/05 01:18:28;;;;;;;9.13;2.00;;;2.50;99.90;;;;;;4807025;29;20403;-84
2023/03/05 01:20:54;;;;;;;7.27;2.00;;;3.20;99.90;;;;;;4806536;29;20050;-84
2023/03/05 01:23:49;;;;;;;8.60;2.00;;;4.50;99.90;;;;;;4806679;29;20053;-84
2023/03/05 01:26:27;;;;;;;6.37;1.80;;;3.70;99.90;;;;;;4823520;29;20139;-84
2023/03/05 01:28:53;;;;;;;8.80;1.93;;;2.80;99.90;;;;;;4822854;29;20042;-84
2023/03/05 01:31:21;;;;;;;8.37;1.90;;;2.70;99.90;;;;;;4806612;29;20054;-84
2023/03/05 01:34:02;;;;;;;10.63;2.00;;;3.90;99.90;;;;;;4806926;29;20046;-84
2023/03/05 01:36:44;;;;;;;7.33;1.70;;;2.70;99.90;;;;;;4805789;29;20051;-84
2023/03/05 01:39:16;;;;;;;8.40;2.00;;;4.20;99.90;;;;;;4807380;29;20525;-84
2023/03/05 01:41:47;;;;;;;9.13;1.77;;;2.90;99.90;;;;;;4794728;29;20050;-84
2023/03/05 02:11:49;;;;;;;7.67;2.00;;;2.90;99.90;;;;;;4827062;29;20054;-84
2023/03/05 02:14:33;;;;;;;8.20;1.87;;;3.10;99.90;;;;;;4838927;29;20045;-84
2023/03/05 02:17:44;;;;;;;8.50;2.33;;;2.20;99.90;;;;;;5083884;24;20054;-84
2023/03/05 02:23:39;;;;;;;9.77;2.33;;;2.30;99.90;;;;;;4754149;30;20474;-84
2023/03/05 02:27:01;;;;;;;8.77;2.43;;;4.40;99.90;;;;;;4754453;30;20093;-83
2023/03/05 02:33:08;;;;;;;8.27;2.20;;;3.30;99.90;;;;;;4763365;30;20172;-84
2023/03/05 02:35:34;;;;;;;10.00;2.37;;;2.60;99.90;;;;;;4754451;30;20084;-83
2023/03/05 02:38:22;;;;;;;11.03;2.90;;;3.90;99.90;;;;;;4755234;30;20056;-84
2023/03/05 02:41:05;;;;;;;9.90;2.30;;;2.50;99.90;;;;;;4754769;30;20052;-84
2023/03/05 02:43:49;;;;;;;10.55;2.20;;;2.20;99.90;;;;;;4775909;30;20421;-83
2023/03/05 02:46:30;;;;;;;;;;;2.10;99.90;;;;;;4774054;30;20081;-83
2023/03/05 02:49:01;;;;;;;9.40;2.47;;;3.00;99.90;;;;;;4769992;30;19926;-83
2023/03/05 02:51:44;;;;;;;8.47;2.30;;;1.60;99.90;;;;;;4754750;30;20104;-84
2023/03/05 02:54:13;;;;;;;10.35;2.33;;;2.00;99.90;;;;;;4754048;30;20063;-84
2023/03/05 02:57:01;;;;;;;10.67;2.63;;;3.50;99.90;;;;;;4763687;29;20050;-84
2023/03/05 03:12:40;;;;;;;9.40;2.43;;;1.80;99.90;;;;;;5126387;24;20037;-84
2023/03/05 03:15:16;;;;;;;10.13;2.40;;;1.50;99.90;;;;;;4844575;29;20046;-83
2023/03/05 03:24:42;;;;;;;9.50;2.40;;;1.90;99.90;;;;;;4794534;29;20107;-84
2023/03/05 03:30:24;;;;;;;9.73;2.60;;;1.10;99.90;;;;;;4877868;23;20053;-83
2023/03/05 03:32:53;;;;;;;10.57;2.93;;;1.90;99.90;;;;;;4825202;29;20069;-83
2023/03/05 03:39:19;;;;;;;11.07;2.80;;;1.20;99.90;;;;;;4768880;30;20511;-83
2023/03/05 03:42:10;;;;;;;12.00;2.70;;;3.10;99.90;;;;;;4753534;30;20055;-83
2023/03/05 03:44:49;;;;;;;14.00;3.00;;;1.60;99.90;;;;;;4753787;30;20055;-83
2023/03/05 03:47:39;;;;;;;12.33;2.87;;;1.40;99.90;;;;;;4769077;30;20138;-83
2023/03/05 03:50:55;;;;;;;10.30;3.07;;;3.00;99.90;;;;;;4753096;30;20070;-83
2023/03/05 03:53:21;;;;;;;10.50;2.70;;;1.80;99.90;;;;;;4785519;29;20051;-83
2023/03/05 03:56:27;;;;;;;10.27;3.20;;;1.80;99.90;;;;;;4807450;29;20836;-83
2023/03/05 03:58:53;;;;;;;10.67;2.73;;;2.70;99.90;;;;;;4808477;29;20625;-83
2023/03/05 04:01:22;;;;;;;10.40;2.90;;;1.70;99.90;;;;;;4808610;29;20089;-83
2023/03/05 04:03:47;;;;;;;11.70;3.00;;;2.10;99.90;;;;;;4815127;24;20464;-82
2023/03/05 04:06:13;;;;;;;10.07;2.60;;;3.80;99.90;;;;;;4806223;29;20089;-83
2023/03/05 04:08:48;;;;;;;9.80;2.33;;;2.60;99.90;;;;;;4808017;29;20133;-83
2023/03/05 04:11:14;;;;;;;11.83;2.70;;;3.00;99.90;;;;;;4807064;29;20046;-83
2023/03/05 04:13:41;;;;;;;9.33;2.50;;;2.00;99.90;;;;;;4824246;29;20050;-83
2023/03/05 04:16:07;;;;;;;12.60;2.80;;;1.80;99.90;;;;;;4808401;29;20547;-83
2023/03/05 04:18:45;;;;;;;11.03;2.43;;;2.00;99.90;;;;;;4807409;29;20082;-83
2023/03/05 04:28:40;;;;;;;11.10;2.70;;;2.60;99.90;;;;;;4824135;29;20094;-83
2023/03/05 04:31:24;;;;;;;9.02;2.08;;;1.80;99.90;;;;;;4807284;29;20050;-83
2023/03/05 04:33:50;;;;;;;;;;;3.80;99.90;;;;;;4808401;29;20046;-83
2023/03/05 04:36:22;;;;;;;8.23;2.00;;;3.30;99.90;;;;;;4808492;29;19927;-83
2023/03/05 04:39:39;;;;;;;10.20;2.40;;;1.80;99.90;;;;;;4806782;29;20103;-83
2023/03/05 04:42:05;;;;;;;12.20;2.63;;;2.40;99.90;;;;;;4780972;29;20407;-83
2023/03/05 04:44:58;;;;;;;10.03;2.27;;;2.00;99.90;;;;;;4836979;29;20046;-82
2023/03/05 04:47:24;;;;;;;11.70;2.40;;;2.80;99.90;;;;;;4825580;29;20663;-83
2023/03/05 04:49:50;;;;;;;11.40;2.40;;;2.40;99.90;;;;;;4825892;29;20081;-84
2023/03/05 04:52:34;;;;;;;7.77;2.00;;;2.10;99.90;;;;;;4841128;29;20042;-83
2023/03/05 04:55:02;;;;;;;10.05;2.47;;;2.90;99.90;;;;;;4794825;29;20056;-83
2023/03/05 05:01:18;;;;;;;11.00;2.10;;;2.30;99.90;;;;;;4817870;29;20038;-83
2023/03/05 05:03:44;;;;;;;11.70;2.20;;;1.80;99.90;;;;;;4823184;29;20517;-83
2023/03/05 05:06:10;;;;;;;8.53;2.13;;;2.80;99.90;;;;;;4806057;29;20097;-83
2023/03/05 05:08:46;;;;;;;7.20;2.20;;;2.80;99.90;;;;;;4783847;29;20117;-83
2023/03/05 05:11:30;;;;;;;11.77;2.20;;;3.20;99.90;;;;;;4770774;30;20055;-83
2023/03/05 05:13:56;;;;;;;9.90;2.10;;;3.70;99.90;;;;;;4770067;30;20054;-83
2023/03/05 05:16:55;;;;;;;8.37;2.00;;;2.40;99.90;;;;;;4785387;29;20408;-83
2023/03/05 05:19:21;;;;;;;6.27;1.93;;;2.00;99.90;;;;;;4785679;30;20082;-83
2023/03/05 05:21:59;;;;;;;6.77;1.77;;;2.00;99.90;;;;;;4784310;29;20078;-83
2023/03/05 05:24:25;;;;;;;9.87;2.10;;;2.50;99.90;;;;;;4785088;30;20059;-83
2023/03/05 05:26:53;;;;;;;8.83;1.90;;;2.10;99.90;;;;;;4784980;29;20127;-83
2023/03/05 05:29:45;;;;;;;10.20;1.87;;;3.20;99.90;;;;;;4785166;30;20059;-83
2023/03/05 05:32:18;;;;;;;9.03;1.90;;;2.70;99.90;;;;;;4785105;30;20128;-83
2023/03/05 05:34:43;;;;;;;5.03;1.40;;;2.20;99.90;;;;;;4784117;29;20087;-83
2023/03/05 05:39:57;;;;;;;7.20;1.70;;;2.20;99.90;;;;;;5043763;23;20097;-83
2023/03/05 05:42:48;;;;;;;7.03;2.00;;;2.20;99.90;;;;;;4827181;24;20046;-83
2023/03/05 05:45:14;;;;;;;6.80;1.60;;;3.50;99.90;;;;;;4809574;29;20114;-83
2023/03/05 05:54:48;;;;;;;7.07;1.50;;;3.30;99.90;;;;;;4779456;30;20066;-82
2023/03/05 05:57:39;;;;;;;8.63;1.70;;;1.90;99.90;;;;;;4766509;30;20130;-83
2023/03/05 06:00:13;;;;;;;6.00;1.70;;;2.70;99.90;;;;;;5028413;24;20051;-83
2023/03/05 06:02:40;;;;;;;7.00;1.77;;;2.10;99.90;;;;;;4823252;23;20081;-83
2023/03/05 06:05:19;;;;;;;6.63;1.70;;;3.60;99.90;;;;;;4808304;29;20134;-82
2023/03/05 06:07:57;;;;;;;6.70;1.80;;;2.00;99.90;;;;;;4825073;29;20468;-83
2023/03/05 06:10:28;;;;;;;9.40;2.00;;;2.00;99.90;;;;;;4835881;29;20491;-83
2023/03/05 06:13:05;;;;;;;8.00;1.80;;;1.40;99.90;;;;;;4838348;29;20094;-83
2023/03/05 06:23:08;;;;;;;7.33;1.80;;;2.70;99.90;;;;;;4849674;29;20067;-83
2023/03/05 06:25:43;;;;;;;6.67;2.03;;;2.10;99.90;;;;;;4827235;29;20054;-83
2023/03/05 06:32:53;;;;;;;6.80;1.70;;;1.20;99.90;;;;;;4825703;29;20069;-83
2023/03/05 06:35:44;;;;;;;8.07;2.10;;;2.00;99.90;;;;;;4809514;29;20050;-84
2023/03/05 06:44:44;;;;;;;10.70;1.90;;;2.60;99.90;;;;;;4828402;29;20160;-83
2023/03/05 06:47:10;;;;;;;10.17;1.90;;;2.70;99.90;;;;;;4826341;29;20050;-83
2023/03/05 06:49:54;;;;;;;8.00;1.93;;;4.00;99.90;;;;;;4827249;29;20406;-83
2023/03/05 06:53:11;;;;;;;8.25;2.00;;;2.50;99.90;;;;;;4818800;29;20049;-83
2023/03/05 06:55:55;;;;;;;7.57;1.80;;;1.80;99.90;;;;;;4843516;29;20053;-83
2023/03/05 06:58:21;;;;;;;10.67;2.00;;;2.40;99.90;;;;;;4827105;29;20091;-81
2023/03/05 07:01:05;;;;;;;7.57;2.00;;;2.40;99.90;;;;;;4839388;29;20475;-84
2023/03/05 07:03:50;;;;;;;;;;;2.30;99.90;;;;;;4826242;29;20101;-84
2023/03/05 07:06:22;;;;;;;11.07;2.83;;;1.40;99.90;;;;;;4826224;29;19924;-84
2023/03/05 07:08:48;;;;;;;7.63;2.10;;;2.00;99.90;;;;;;4843462;29;20102;-84
2023/03/05 07:11:19;;;;;;;6.40;1.90;;;1.90;99.90;;;;;;4819620;29;20054;-83
2023/03/05 07:13:48;;;;;;;10.67;2.03;;;2.10;99.90;;;;;;4813708;29;20090;-82
2023/03/05 07:19:20;;;;;;;8.43;1.87;;;3.60;99.90;;;;;;5033355;23;20128;-82
2023/03/05 07:21:55;;;;;;;6.67;1.67;;;2.40;99.90;;;;;;4843213;29;20452;-91
2023/03/05 07:30:18;;;;;;;9.90;2.40;;;2.40;99.90;;;;;;5071064;23;20105;-91
2023/03/05 07:32:44;;;;;;;9.27;2.00;;;2.60;99.90;;;;;;4851188;23;20078;-90
2023/03/05 07:41:59;;;;;;;8.93;2.40;;;3.30;99.90;;;;;;4862397;29;20110;-94
2023/03/05 07:52:07;;;;;;;7.20;1.77;;;2.50;99.90;;;;;;4938372;23;20058;-91
2023/03/05 08:03:01;;;;;;;8.60;2.00;;;2.80;99.90;;;;;;4788017;29;20058;-93
2023/03/05 08:05:33;;;;;;;7.23;1.80;;;3.80;99.90;;;;;;4772798;30;20049;-93
2023/03/05 08:08:22;;;;;;;10.57;2.10;;;3.00;99.90;;;;;;4801610;24;20097;-96
2023/03/05 08:36:56;;;;;;;8.43;2.20;;;3.50;99.90;;;;;;4986237;23;20054;-91
2023/03/05 09:23:25;;;;;;;7.90;1.90;;;4.40;99.90;;;;;;4904031;23;20526;31
2023/03/05 09:26:26;;;;;;;7.80;1.70;;;4.50;99.90;;;;;;4791923;29;20504;-95
2023/03/05 09:39:29;;;;;;;8.67;1.90;;;4.70;99.90;;;;;;5183903;23;20164;-94
2023/03/05 09:50:53;;;;;;;6.83;1.70;;;5.10;99.90;;;;;;4854318;24;20050;-93
2023/03/05 12:09:03;;;;;;;;;;;;;;;;;;;;;
2023/03/05 12:21:14;;;;;;;;;;;;;;;;;;;;;
2023/03/05 12:28:33;;;;;;;8.00;1.80;;;6.20;99.90;;;;;;5112562;23;20061;-89
2023/03/05 12:37:33;;;;;;;5.87;1.67;;;6.60;99.90;;;;;;5406153;23;20554;-90
2023/03/05 12:40:19;;;;;;;;;;;;;;;;;;;;;
2023/03/05 12:44:23;;;;;;;;;;;;;;;;;;;;;
2023/03/05 12:50:43;;;;;;;4.90;1.50;;;7.40;99.90;;;;;;4745167;30;20140;-96
2023/03/05 14:56:41;;;;;;;7.90;2.00;;;5.80;99.90;;;;;;5499090;23;20428;-91
2023/03/05 14:59:10;;;;;;;8.53;2.80;;;6.00;99.90;;;;;;4855698;29;20135;-90
2023/03/05 15:01:51;;;;;;;6.43;1.70;;;5.30;99.90;;;;;;4852109;29;20371;-91
2023/03/05 15:04:25;;;;;;;6.60;1.80;;;5.40;99.90;;;;;;5058182;24;20656;-91
2023/03/05 15:06:54;;;;;;;8.07;1.90;;;5.60;99.90;;;;;;4846419;29;20039;-92
2023/03/05 15:09:28;;;;;;;12.33;2.30;;;5.10;99.90;;;;;;4828135;29;20062;-91
2023/03/05 15:12:02;;;;;;;12.53;2.23;;;6.90;99.90;;;;;;4809823;29;20051;-91
2023/03/05 15:14:28;;;;;;;5.50;1.70;;;5.40;99.90;;;;;;4991734;24;20092;-91
2023/03/05 15:17:16;;;;;;;11.07;3.07;;;6.40;99.90;;;;;;4844925;29;20046;-91
2023/03/05 16:50:51;;;;;;;8.07;1.80;;;5.10;99.90;;;;;;4840489;29;20550;-93
2023/03/05 18:39:48;;;;;;;18.50;6.70;;;4.40;99.90;;;;;;4802099;29;20083;-86
2023/03/05 18:42:37;;;;;;;11.07;3.07;;;3.20;99.90;;;;;;4805937;24;20077;-85
2023/03/05 18:45:39;;;;;;;;;;;;;;;;;;;;;
2023/03/05 18:48:15;;;;;;;11.47;2.60;;;3.30;99.90;;;;;;4905456;24;20050;-84
2023/03/05 18:50:44;;;;;;;12.90;3.53;;;3.90;99.90;;;;;;4854912;29;20054;-85
2023/03/05 18:53:16;;;;;;;9.90;2.50;;;3.20;99.90;;;;;;4837279;29;20398;-85
2023/03/05 18:55:57;;;;;;;12.03;3.53;;;4.90;99.90;;;;;;4868343;29;20045;-85
2023/03/05 19:04:54;;;;;;;11.20;3.40;;;3.10;99.90;;;;;;4805360;29;20057;-84
2023/03/05 19:07:45;;;;;;;10.53;3.93;;;4.90;99.90;;;;;;4790287;29;20408;-84
2023/03/05 19:14:24;;;;;;;9.00;3.20;;;1.90;99.90;;;;;;4806875;29;20511;-85
2023/03/05 19:17:40;;;;;;;11.37;2.57;;;2.80;99.90;;;;;;4807128;29;20129;-84
2023/03/05 19:20:18;;;;;;;9.30;2.30;;;3.00;99.90;;;;;;4806900;29;20115;-83
2023/03/05 19:22:58;;;;;;;9.73;2.53;;;2.70;99.90;;;;;;4804533;29;20062;-86
2023/03/05 19:25:56;;;;;;;10.30;2.60;;;2.10;99.90;;;;;;5299015;23;20133;-86
2023/03/05 19:28:29;;;;;;;9.07;2.57;;;3.50;99.90;;;;;;4817690;24;20458;-86
2023/03/05 19:31:11;;;;;;;10.00;2.60;;;1.70;99.90;;;;;;4783190;29;20129;-86
2023/03/05 19:33:46;;;;;;;10.33;2.73;;;2.40;99.90;;;;;;4814737;29;20057;-85
2023/03/05 19:36:12;;;;;;;9.87;3.00;;;3.50;99.90;;;;;;4786985;29;20043;-85
2023/03/05 19:38:47;;;;;;;10.70;3.10;;;2.30;99.90;;;;;;4795230;29;20047;-86
2023/03/05 19:41:21;;;;;;;9.83;3.37;;;2.40;99.90;;;;;;4772842;30;20092;-86
2023/03/05 19:50:17;;;;;;;10.03;2.73;;;3.50;99.90;;;;;;4826395;29;20142;-85
2023/03/05 19:53:04;;;;;;;10.37;3.30;;;2.40;99.90;;;;;;4841963;29;20765;-86
2023/03/05 19:55:39;;;;;;;9.17;2.73;;;2.30;99.90;;;;;;4840158;29;20101;-86
2023/03/05 19:58:10;;;;;;;9.57;2.80;;;2.60;99.90;;;;;;4909602;23;20122;-86
2023/03/05 20:31:38;;;;;;;11.03;3.80;;;2.90;99.90;;;;;;4836281;23;20497;-86
2023/03/05 20:43:50;;;;;;;10.27;2.90;;;1.40;99.90;;;;;;4840448;29;20053;-86
2023/03/05 20:55:27;;;;;;;9.60;2.70;;;1.80;99.90;;;;;;4818642;29;20047;-85
2023/03/05 20:58:50;;;;;;;9.80;3.10;;;2.10;99.90;;;;;;4815209;29;20045;-85
2023/03/05 21:01:39;;;;;;;10.32;2.85;;;2.00;99.90;;;;;;4818813;29;20089;-85
2023/03/05 21:08:25;;;;;;;12.03;2.87;;;2.80;99.90;;;;;;4831844;29;20585;-84
2023/03/05 21:11:16;;;;;;;8.73;2.80;;;1.80;99.90;;;;;;4827487;24;20435;-85
2023/03/05 21:13:43;;;;;;;10.03;2.83;;;0.50;99.90;;;;;;4825511;29;20050;-84
2023/03/05 21:16:43;;;;;;;9.20;3.13;;;1.00;99.90;;;;;;4828819;29;20053;-85
2023/03/05 21:23:20;;;;;;;8.53;2.70;;;1.90;99.90;;;;;;4838218;29;20102;-85
2023/03/05 21:25:56;;;;;;;10.07;3.27;;;1.50;99.90;;;;;;4837867;29;20057;-85
2023/03/05 21:28:47;;;;;;;9.73;3.10;;;1.10;99.90;;;;;;4848237;29;20054;-85
2023/03/05 21:31:25;;;;;;;10.20;3.07;;;1.10;99.90;;;;;;4848545;29;20115;-85
2023/03/05 21:34:17;;;;;;;10.90;3.10;;;0.90;99.90;;;;;;4813437;29;20102;-85
2023/03/05 21:36:46;;;;;;;10.20;2.90;;;0.60;99.90;;;;;;4834343;29;20378;-85
2023/03/05 21:39:14;;;;;;;10.97;3.13;;;1.50;99.90;;;;;;4841018;29;20057;-85
2023/03/05 21:41:55;;;;;;;11.27;3.00;;;2.80;99.90;;;;;;4837109;29;20490;-85
2023/03/05 21:45:02;;;;;;;9.40;2.70;;;2.40;99.90;;;;;;4842119;29;20057;-85
2023/03/05 21:47:54;;;;;;;9.13;2.93;;;2.20;99.90;;;;;;4793512;29;20065;-87
2023/03/05 21:50:21;;;;;;;11.10;3.00;;;0.70;99.90;;;;;;4832704;29;20052;-85
2023/03/05 21:52:47;;;;;;;9.10;3.37;;;1.30;99.90;;;;;;4834045;29;20452;-85
2023/03/05 22:13:33;;;;;;;10.20;2.67;;;1.40;99.90;;;;;;4881342;23;20061;-85
2023/03/05 22:29:30;;;;;;;10.80;3.13;;;0.80;99.90;;;;;;5012171;23;20098;-85
2023/03/05 22:32:17;;;;;;;10.77;3.60;;;1.40;99.90;;;;;;4804651;29;20054;-85
2023/03/05 22:43:54;;;;;;;10.90;3.20;;;1.60;99.90;;;;;;4896817;23;20062;-84
2023/03/05 22:48:52;;;;;;;9.93;2.63;;;1.30;99.90;;;;;;5869883;23;20105;-85
2023/03/05 22:51:20;;;;;;;13.40;3.03;;;1.60;99.90;;;;;;4836744;24;20408;-84
2023/03/05 22:53:46;;;;;;;10.57;3.30;;;2.00;99.90;;;;;;4825802;29;20042;-83
2023/03/05 22:56:17;;;;;;;11.00;3.20;;;2.70;99.90;;;;;;4807765;29;20054;-84
2023/03/05 22:59:03;;;;;;;10.67;3.27;;;1.90;99.90;;;;;;4809538;29;20051;-84
2023/03/05 23:01:54;;;;;;;10.63;2.90;;;1.50;99.90;;;;;;4809339;29;20150;-83
2023/03/05 23:07:33;;;;;;;10.43;2.93;;;1.40;99.90;;;;;;4809008;29;20511;-84
2023/03/05 23:10:33;;;;;;;9.73;3.30;;;1.80;99.90;;;;;;4808519;29;20046;-84
2023/03/05 23:12:59;;;;;;;10.03;3.00;;;0.70;99.90;;;;;;4796351;29;20050;-83
2023/03/05 23:21:59;;;;;;;;;;;;;;;;;;;;;
2023/03/05 23:24:47;;;;;;;12.00;2.90;;;1.60;99.90;;;;;;4826974;29;20052;-84
2023/03/05 23:27:24;;;;;;;9.60;2.63;;;1.90;99.90;;;;;;4826890;29;20049;-84
2023/03/05 23:30:31;;;;;;;9.23;3.00;;;0.50;99.90;;;;;;4831516;29;20527;-84
2023/03/05 23:33:20;;;;;;;11.60;3.27;;;2.40;99.90;;;;;;4810996;29;20141;-84
2023/03/05 23:36:04;;;;;;;11.47;2.90;;;0.90;99.90;;;;;;4827640;29;20061;-84
2023/03/05 23:39:00;;;;;;;10.60;2.83;;;1.00;99.90;;;;;;4825830;29;20129;-84
2023/03/05 23:41:45;;;;;;;7.87;2.40;;;3.00;99.90;;;;;;4851354;29;20089;-85
2023/03/05 23:44:14;;;;;;;12.03;3.17;;;2.20;99.90;;;;;;4842246;29;20490;-85
2023/03/05 23:47:00;;;;;;;14.23;3.30;;;0.60;99.90;;;;;;4826967;29;20054;-84
2023/03/05 23:49:29;;;;;;;11.67;3.00;;;1.10;99.90;;;;;;4826972;29;20483;-84
2023/03/05 23:52:01;;;;;;;11.83;3.30;;;0.90;99.90;;;;;;4833744;29;20054;-84
2023/03/05 23:54:26;;;;;;;11.57;3.30;;;2.30;99.90;;;;;;4826484;29;20154;-85
2023/03/05 23:57:04;;;;;;;12.10;3.70;;;1.10;99.90;;;;;;4827835;29;20792;-85
2023/03/05 23:59:49;;;;;;;10.57;4.30;;;1.20;99.90;;;;;;4834195;29;20070;-84
